Time;durP1;ratioP1;P1;durP2;ratioP2;P2;SDS_P1;SDS_P2;PMS_P1;PMS_P2;Temp;Humidity;BMP_temperature;BMP_pressure;BME280_temperature;BME280_humidity;BME280_pressure;Samples;Min_cycle;Max_cycle;Signal;HPM_P1;HPM_P2
2022/11/13 00:01:09;;;;;;;16.55;8.50;;;;;;;6.01;76.83;102555.28;5060943;28;20484;-79
2022/11/13 00:03:36;;;;;;;15.93;9.80;;;;;;;6.18;76.42;102558.69;5062178;28;20160;-79
2022/11/13 00:06:03;;;;;;;16.85;9.13;;;;;;;6.21;76.00;102554.31;5046530;28;20045;-79
2022/11/13 00:08:30;;;;;;;16.30;8.85;;;;;;;6.29;75.17;102555.16;5047924;28;20041;-79
2022/11/13 00:11:01;;;;;;;13.98;8.70;;;;;;;6.17;75.36;102559.56;5042684;28;20072;-79
2022/11/13 00:13:28;;;;;;;17.00;7.97;;;;;;;6.05;75.25;102550.06;5047252;28;20041;-79
2022/11/13 00:16:00;;;;;;;15.85;9.10;;;;;;;5.86;75.73;102557.09;5038260;28;20048;-79
2022/11/13 00:18:28;;;;;;;15.50;9.32;;;;;;;5.39;76.73;102545.91;5042105;28;20059;-79
2022/11/13 00:20:55;;;;;;;12.65;8.30;;;;;;;5.38;76.82;102549.38;5047462;28;20044;-79
2022/11/13 00:23:22;;;;;;;16.88;8.90;;;;;;;5.61;76.20;102545.00;5037599;28;20044;-79
2022/11/13 00:25:48;;;;;;;16.45;8.75;;;;;;;5.70;75.69;102542.34;5047717;28;20059;-79
2022/11/13 00:28:15;;;;;;;13.77;8.05;;;;;;;5.59;75.83;102546.72;5047290;28;20044;-79
2022/11/13 00:30:42;;;;;;;14.55;8.52;;;;;;;5.62;75.69;102528.47;5039118;28;20048;-79
2022/11/13 00:33:10;;;;;;;16.50;8.80;;;;;;;5.43;76.00;102526.81;5051080;28;20520;-79
2022/11/13 00:35:37;;;;;;;14.50;8.40;;;;;;;5.55;75.67;102534.56;5051252;28;20060;-79
2022/11/13 00:38:03;;;;;;;18.15;8.55;;;;;;;5.40;75.57;102522.47;5036153;28;20048;-79
2022/11/13 00:40:30;;;;;;;13.43;7.95;;;;;;;5.34;75.59;102529.44;5051086;28;20045;-79
2022/11/13 00:42:56;;;;;;;15.00;7.93;;;;;;;5.43;75.11;102521.63;5066968;28;20052;-79
2022/11/13 00:45:22;;;;;;;11.65;7.28;;;;;;;5.38;75.30;102519.03;5023821;28;20045;-79
2022/11/13 00:47:49;;;;;;;14.55;8.60;;;;;;;5.28;75.87;102519.03;5040833;28;20051;-79
2022/11/13 00:50:17;;;;;;;12.80;8.45;;;;;;;5.38;75.85;102526.81;5050117;28;20048;-79
2022/11/13 00:52:44;;;;;;;14.20;8.40;;;;;;;5.43;75.62;102525.94;5041451;28;20052;-79
2022/11/13 00:55:10;;;;;;;15.40;9.45;;;;;;;5.40;75.35;102527.66;5051169;28;20041;-79
2022/11/13 00:57:36;;;;;;;14.13;8.52;;;;;;;5.29;75.36;102524.22;5050087;28;20455;-78
2022/11/13 01:00:04;;;;;;;13.15;8.00;;;;;;;5.16;74.72;102532.06;5043176;28;20055;-79
2022/11/13 01:02:31;;;;;;;18.00;7.97;;;;;;;5.13;74.63;102529.47;5066336;28;20075;-78
2022/11/13 01:04:57;;;;;;;16.30;8.40;;;;;;;5.20;74.69;102529.47;5068627;28;20408;-78
2022/11/13 01:07:25;;;;;;;15.00;9.05;;;;;;;4.74;76.50;102531.19;5040106;28;20048;-78
2022/11/13 01:09:52;;;;;;;13.55;8.07;;;;;;;4.85;76.50;102526.00;5054982;28;20052;-78
2022/11/13 01:12:19;;;;;;;13.43;8.50;;;;;;;4.67;77.90;102526.84;5049696;28;20499;-78
2022/11/13 01:14:45;;;;;;;15.73;8.75;;;;;;;4.60;77.33;102525.13;5040754;28;20036;-78
2022/11/13 01:17:12;;;;;;;14.80;8.77;;;;;;;4.34;79.00;102521.59;5050796;28;20408;-78
2022/11/13 01:19:38;;;;;;;15.73;9.00;;;;;;;4.19;81.43;102511.16;5048163;28;20048;-78
2022/11/13 01:22:05;;;;;;;18.55;10.10;;;;;;;4.47;81.14;102509.53;5040539;28;20403;-79
2022/11/13 01:24:33;;;;;;;16.67;9.93;;;;;;;4.18;81.53;102507.72;5050404;28;20048;-78
2022/11/13 01:26:59;;;;;;;16.25;9.13;;;;;;;4.53;81.30;102512.97;5048079;28;20055;-78
2022/11/13 01:29:26;;;;;;;14.35;8.30;;;;;;;4.28;81.13;102503.44;5047838;28;20435;-78
2022/11/13 01:31:52;;;;;;;18.40;9.25;;;;;;;4.01;82.62;102503.34;5057060;28;20044;-78
2022/11/13 01:34:19;;;;;;;17.20;9.00;;;;;;;4.08;83.18;102505.09;5048917;28;20055;-78
2022/11/13 01:36:46;;;;;;;14.90;9.35;;;;;;;4.07;83.86;102503.34;5040749;28;20419;-78
2022/11/13 01:39:12;;;;;;;19.50;9.07;;;;;;;3.97;83.39;102499.00;5050066;28;20060;-78
2022/11/13 01:41:40;;;;;;;21.88;10.15;;;;;;;4.00;83.88;102499.88;5048353;28;20047;-78
2022/11/13 01:44:12;;;;;;;18.30;9.45;;;;;;;4.00;83.23;102504.19;5040128;28;20044;-78
2022/11/13 01:46:42;;;;;;;12.47;8.50;;;;;;;4.16;82.97;102495.59;5066778;28;20046;-78
2022/11/13 01:49:26;;;;;;;15.80;9.95;;;;;;;3.99;82.70;102499.88;5044860;28;20040;-78
2022/11/13 01:51:55;;;;;;;15.20;9.38;;;;;;;4.07;83.41;102501.63;5030722;28;20053;-78
2022/11/13 01:54:25;;;;;;;27.38;11.07;;;;;;;4.26;87.29;102492.16;5035492;28;20449;-78
2022/11/13 01:56:54;;;;;;;17.60;10.45;;;;;;;4.26;83.69;102492.16;5039197;28;20044;-78
2022/11/13 01:59:24;;;;;;;16.45;9.18;;;;;;;4.37;82.21;102491.31;5034784;28;20049;-78
2022/11/13 02:01:50;;;;;;;19.50;9.27;;;;;;;4.41;81.72;102493.06;5041284;28;20052;-79
2022/11/13 02:04:17;;;;;;;13.35;7.63;;;;;;;4.52;79.90;102485.25;5055747;28;20040;-78
2022/11/13 02:06:48;;;;;;;15.90;9.02;;;;;;;4.49;79.28;102503.44;5046843;28;20040;-78
2022/11/13 02:09:15;;;;;;;15.25;8.52;;;;;;;4.59;78.45;102483.53;5047814;28;20495;-78
2022/11/13 02:11:42;;;;;;;17.58;9.27;;;;;;;4.71;78.07;102481.81;5040700;28;20306;-78
2022/11/13 02:14:12;;;;;;;21.40;9.13;;;;;;;4.53;78.14;102483.53;5049288;28;20042;-78
2022/11/13 02:16:41;;;;;;;22.17;9.05;;;;;;;4.61;77.50;102477.50;5043645;28;20123;-78
2022/11/13 02:19:15;;;;;;;21.70;9.38;;;;;;;4.77;76.99;102476.59;5053948;28;20483;-79
2022/11/13 02:21:47;;;;;;;16.95;9.10;;;;;;;4.64;77.29;102474.88;5052531;28;20044;-78
2022/11/13 02:24:23;;;;;;;14.98;9.00;;;;;;;4.57;77.14;102470.56;5039183;28;20117;-78
2022/11/13 02:26:51;;;;;;;15.10;8.35;;;;;;;4.66;76.94;102464.47;5049117;28;20390;-78
2022/11/13 02:29:17;;;;;;;13.98;8.00;;;;;;;4.53;77.24;102475.75;5037463;28;20491;-78
2022/11/13 02:31:44;;;;;;;19.27;9.07;;;;;;;4.62;77.23;102468.81;5055853;28;20036;-78
2022/11/13 02:34:10;;;;;;;21.05;10.13;;;;;;;4.60;77.50;102467.97;5039996;28;20523;-78
2022/11/13 02:36:37;;;;;;;18.10;9.98;;;;;;;4.64;77.76;102468.81;5038957;28;20051;-78
2022/11/13 02:39:06;;;;;;;18.50;10.07;;;;;;;4.23;78.13;102463.59;5048897;28;20416;-78
2022/11/13 02:41:34;;;;;;;16.70;9.48;;;;;;;4.35;78.48;102471.41;5048067;28;20059;-78
2022/11/13 02:44:01;;;;;;;17.85;11.18;;;;;;;4.28;79.17;102460.16;5047804;28;20048;-78
2022/11/13 02:46:27;;;;;;;19.25;10.10;;;;;;;4.30;78.82;102461.00;5068473;28;20051;-78
2022/11/13 02:48:54;;;;;;;21.45;10.23;;;;;;;4.49;78.24;102458.41;5043258;28;20052;-78
2022/11/13 02:51:20;;;;;;;20.58;10.23;;;;;;;4.50;76.96;102455.84;5038302;28;20052;-78
2022/11/13 02:53:47;;;;;;;15.73;9.02;;;;;;;4.47;75.94;102453.25;5053374;28;20052;-78
2022/11/13 02:56:13;;;;;;;15.38;8.48;;;;;;;4.57;75.55;102451.50;5049949;28;20040;-78
2022/11/13 02:58:42;;;;;;;18.02;9.50;;;;;;;4.63;75.18;102446.28;5040908;28;20048;-78
2022/11/13 03:01:08;;;;;;;14.20;8.13;;;;;;;4.63;75.38;102438.50;5047964;28;20045;-78
2022/11/13 03:03:35;;;;;;;20.15;8.38;;;;;;;4.54;75.65;102439.38;5069094;28;20040;-78
2022/11/13 03:06:02;;;;;;;13.63;7.60;;;;;;;4.65;75.09;102441.97;5024470;28;20056;-78
2022/11/13 03:08:29;;;;;;;20.77;8.45;;;;;;;4.64;74.66;102441.13;5048432;28;20041;-78
2022/11/13 03:10:56;;;;;;;16.98;8.55;;;;;;;4.54;74.79;102435.94;5046960;28;20454;-78
2022/11/13 03:13:22;;;;;;;13.95;7.75;;;;;;;4.52;75.22;102437.63;5057720;28;20043;-78
2022/11/13 03:15:50;;;;;;;14.10;8.30;;;;;;;4.50;75.71;102445.44;5068656;28;20044;-78
2022/11/13 03:18:17;;;;;;;14.57;8.32;;;;;;;4.48;75.64;102447.16;5047608;28;20044;-78
2022/11/13 03:20:44;;;;;;;16.67;8.93;;;;;;;4.40;76.29;102443.69;5038194;28;20144;-78
2022/11/13 03:23:10;;;;;;;21.50;8.95;;;;;;;4.51;76.70;102434.16;5048042;28;20158;-78
2022/11/13 03:25:37;;;;;;;19.48;8.88;;;;;;;4.65;76.62;102440.25;5049164;28;20040;-78
2022/11/13 03:28:03;;;;;;;26.23;10.13;;;;;;;4.73;76.49;102448.06;5063053;28;20420;-78
2022/11/13 03:30:29;;;;;;;19.90;10.18;;;;;;;4.78;76.53;102431.56;5066088;28;20045;-78
2022/11/13 03:32:57;;;;;;;27.48;10.13;;;;;;;4.62;77.86;102429.84;5046938;28;20060;-78
2022/11/13 03:35:24;;;;;;;46.08;10.32;;;;;;;4.86;77.14;102437.63;5043419;28;20044;-78
2022/11/13 03:37:51;;;;;;;24.77;10.93;;;;;;;4.68;77.67;102437.66;5047805;28;20053;-78
2022/11/13 03:40:17;;;;;;;28.23;11.20;;;;;;;4.69;78.38;102430.72;5047913;28;20120;-78
2022/11/13 03:42:44;;;;;;;27.13;11.10;;;;;;;4.84;78.29;102431.56;5045194;28;20045;-78
2022/11/13 03:45:10;;;;;;;47.63;12.02;;;;;;;4.82;78.57;102432.44;5044156;28;20065;-78
2022/11/13 03:47:37;;;;;;;26.55;11.52;;;;;;;4.76;79.26;102433.31;5047010;28;20515;-78
2022/11/13 03:50:06;;;;;;;26.83;11.43;;;;;;;4.95;78.84;102428.09;5047173;28;20048;-78
2022/11/13 03:52:32;;;;;;;99.70;12.40;;;;;;;5.00;78.58;102436.72;5046638;28;20073;-78
2022/11/13 03:54:59;;;;;;;34.15;12.00;;;;;;;5.09;78.29;102439.31;5047266;28;20055;-78
2022/11/13 03:57:25;;;;;;;66.40;11.25;;;;;;;5.07;78.69;102435.84;5048739;28;20044;-78
2022/11/13 03:59:52;;;;;;;60.65;11.77;;;;;;;4.99;79.52;102422.03;5038600;28;20053;-78
2022/11/13 04:02:18;;;;;;;28.23;11.82;;;;;;;4.98;79.75;102423.75;5047405;28;20044;-78
2022/11/13 04:04:45;;;;;;;28.98;11.50;;;;;;;5.16;79.57;102417.63;5057034;28;20044;-78
2022/11/13 04:07:12;;;;;;;28.38;10.60;;;;;;;5.09;80.24;102422.00;5041046;28;20052;-78
2022/11/13 04:09:39;;;;;;;46.90;12.02;;;;;;;5.15;80.38;102421.97;5050701;28;20048;-77
2022/11/13 04:12:06;;;;;;;26.35;11.25;;;;;;;5.27;80.16;102424.53;5051051;28;20044;-77
2022/11/13 04:14:32;;;;;;;36.38;10.35;;;;;;;5.38;79.58;102430.56;5041243;28;20071;-76
2022/11/13 04:16:59;;;;;;;108.82;12.95;;;;;;;5.27;80.38;102426.28;5047803;28;20055;-76
2022/11/13 04:19:25;;;;;;;18.65;9.30;;;;;;;5.40;80.16;102422.75;5047680;28;20053;-76
2022/11/13 04:21:52;;;;;;;41.20;11.05;;;;;;;5.39;80.38;102426.25;5040773;28;20056;-75
2022/11/13 04:24:19;;;;;;;82.95;11.35;;;;;;;5.38;80.59;102419.31;5061803;28;20048;-74
2022/11/13 04:26:46;;;;;;;132.00;13.68;;;;;;;5.56;80.30;102420.97;5071388;28;20040;-74
2022/11/13 04:29:12;;;;;;;111.88;12.18;;;;;;;5.51;80.36;102422.69;5055341;28;20056;-73
2022/11/13 04:31:39;;;;;;;22.02;9.90;;;;;;;5.53;80.49;102419.25;5056738;28;20492;-72
2022/11/13 04:34:05;;;;;;;194.60;10.85;;;;;;;5.50;79.95;102427.06;5050528;28;20658;-72
2022/11/13 04:36:32;;;;;;;52.30;9.32;;;;;;;5.49;80.42;102421.84;5041317;28;20408;-70
2022/11/13 04:38:58;;;;;;;186.00;12.23;;;;;;;5.48;80.18;102439.19;5048876;28;20437;-70
2022/11/13 04:44:10;;;;;;;97.53;10.93;;;;;;;5.48;80.35;102417.50;5050422;28;20052;-70
2022/11/13 04:46:36;;;;;;;108.20;10.13;;;;;;;5.44;80.56;102423.59;5050664;28;20044;-71
2022/11/13 04:49:03;;;;;;;219.38;12.57;;;;;;;5.49;80.50;102422.72;5040643;28;20049;-71
2022/11/13 04:51:29;;;;;;;45.85;9.05;;;;;;;5.53;80.25;102419.25;5050311;28;20048;-72
2022/11/13 04:53:56;;;;;;;82.45;10.52;;;;;;;5.62;80.45;102416.59;5050415;28;20059;-72
2022/11/13 04:56:22;;;;;;;57.75;9.07;;;;;;;5.68;80.30;102428.72;5040510;28;20047;-72
2022/11/13 04:58:50;;;;;;;170.95;13.02;;;;;;;5.67;79.97;102417.44;5050565;28;20048;-72
2022/11/13 05:01:17;;;;;;;47.05;8.95;;;;;;;5.51;80.90;102409.69;5050149;28;20059;-72
2022/11/13 05:03:43;;;;;;;57.97;9.75;;;;;;;5.55;81.43;102416.63;5048952;28;20044;-72
2022/11/13 05:06:11;;;;;;;75.22;10.52;;;;;;;5.64;81.04;102420.06;5050463;28;20081;-72
2022/11/13 05:08:38;;;;;;;100.57;11.27;;;;;;;5.48;82.73;102414.91;5051149;28;20442;-72
2022/11/13 05:11:05;;;;;;;28.20;10.93;;;;;;;5.66;82.11;102405.28;5039709;28;20106;-72
2022/11/13 05:13:33;;;;;;;79.00;11.98;;;;;;;5.73;82.16;102400.91;5050300;28;20051;-73
2022/11/13 05:16:01;;;;;;;56.70;10.73;;;;;;;5.83;81.63;102413.91;5049669;28;20060;-72
2022/11/13 05:18:28;;;;;;;51.53;10.27;;;;;;;5.90;81.84;102401.75;5043319;28;20053;-72
2022/11/13 05:20:54;;;;;;;89.72;11.07;;;;;;;5.91;81.34;102405.22;5041744;28;20048;-72
2022/11/13 05:23:21;;;;;;;30.50;9.65;;;;;;;5.93;81.42;102399.09;5049920;28;20055;-72
2022/11/13 05:25:47;;;;;;;51.75;10.07;;;;;;;5.93;81.31;102398.25;5039683;28;20048;-72
2022/11/13 05:28:14;;;;;;;52.50;10.07;;;;;;;5.98;81.28;102401.69;5050229;28;20055;-73
2022/11/13 05:30:40;;;;;;;67.15;10.50;;;;;;;5.98;81.59;102399.97;5049525;28;20186;-73
2022/11/13 05:33:08;;;;;;;174.60;16.98;;;;;;;5.99;81.43;102406.00;5038809;28;20052;-73
2022/11/13 05:35:35;;;;;;;171.77;13.00;;;;;;;5.92;81.54;102404.31;5050689;28;20044;-73
2022/11/13 05:38:02;;;;;;;171.02;16.25;;;;;;;5.88;81.75;102396.53;5050250;28;20040;-73
2022/11/13 05:40:29;;;;;;;92.07;12.30;;;;;;;5.82;82.11;102395.66;5038391;28;20412;-73
2022/11/13 05:42:56;;;;;;;34.15;11.05;;;;;;;5.94;81.77;102393.03;5049860;28;20480;-73
2022/11/13 05:45:23;;;;;;;67.00;10.13;;;;;;;5.96;81.68;102380.84;5049013;28;20048;-73
2022/11/13 05:47:49;;;;;;;31.90;10.38;;;;;;;6.04;81.56;102383.41;5036777;28;20432;-73
2022/11/13 05:50:19;;;;;;;37.00;10.30;;;;;;;6.12;81.16;102382.50;5049266;28;20132;-73
2022/11/13 05:52:46;;;;;;;47.70;10.40;;;;;;;6.21;81.48;102379.81;5050119;28;20117;-73
2022/11/13 05:55:13;;;;;;;88.57;12.40;;;;;;;6.27;81.36;102376.31;5039005;28;20063;-73
2022/11/13 05:57:39;;;;;;;25.77;10.77;;;;;;;6.27;81.40;102378.91;5029471;28;20420;-73
2022/11/13 06:00:07;;;;;;;126.18;13.98;;;;;;;6.22;82.22;102368.50;5029932;28;20057;-73
2022/11/13 06:02:34;;;;;;;150.88;14.10;;;;;;;6.20;82.32;102367.69;5047404;28;20037;-73
2022/11/13 06:05:01;;;;;;;87.72;11.90;;;;;;;6.24;82.47;102365.91;5058738;28;20051;-73
2022/11/13 06:07:29;;;;;;;33.28;10.85;;;;;;;6.33;81.98;102379.72;5049645;28;20048;-73
2022/11/13 06:09:55;;;;;;;46.28;9.88;;;;;;;6.38;81.91;102371.88;5038921;28;20048;-73
2022/11/13 06:12:22;;;;;;;24.88;10.13;;;;;;;6.42;81.72;102367.50;5048682;28;20052;-73
2022/11/13 06:14:48;;;;;;;79.20;12.35;;;;;;;6.36;82.26;102365.78;5048921;28;20056;-73
2022/11/13 06:17:14;;;;;;;22.05;10.00;;;;;;;6.47;82.21;102357.91;5038788;28;20052;-73
2022/11/13 06:19:41;;;;;;;110.90;12.00;;;;;;;6.50;81.87;102355.25;5048437;28;20469;-73
2022/11/13 06:22:07;;;;;;;108.38;12.68;;;;;;;6.60;81.99;102359.50;5049143;28;20053;-73
2022/11/13 06:24:35;;;;;;;32.45;10.60;;;;;;;6.59;82.14;102361.25;5038705;28;20055;-73
2022/11/13 06:27:02;;;;;;;77.05;11.45;;;;;;;6.66;81.85;102354.22;5057318;28;20441;-73
2022/11/13 06:29:28;;;;;;;145.25;13.90;;;;;;;6.70;81.95;102356.78;5051395;28;20051;-73
2022/11/13 06:31:54;;;;;;;45.22;10.30;;;;;;;6.69;82.07;102349.84;5039587;28;20056;-73
2022/11/13 06:34:21;;;;;;;23.23;10.63;;;;;;;6.66;82.22;102362.91;5048658;28;20056;-73
2022/11/13 06:36:47;;;;;;;46.90;11.48;;;;;;;6.63;81.98;102362.94;5048372;28;20059;-73
2022/11/13 06:39:14;;;;;;;20.88;10.85;;;;;;;6.67;82.36;102355.97;5037695;28;20446;-73
2022/11/13 06:41:42;;;;;;;31.90;10.88;;;;;;;6.69;82.56;102359.41;5048516;28;20154;-73
2022/11/13 06:44:08;;;;;;;32.88;10.95;;;;;;;6.60;83.37;102362.97;5047331;28;20131;-74
2022/11/13 06:46:35;;;;;;;29.52;10.85;;;;;;;6.75;83.20;102359.34;5038370;28;20500;-73
2022/11/13 06:49:01;;;;;;;51.05;12.38;;;;;;;6.83;82.97;102366.22;5048024;28;20552;-73
2022/11/13 06:51:29;;;;;;;23.42;10.63;;;;;;;6.93;82.45;102363.50;5046093;28;20540;-73
2022/11/13 06:53:56;;;;;;;24.63;11.82;;;;;;;6.98;82.55;102361.72;5037147;28;20041;-75
2022/11/13 06:56:23;;;;;;;60.97;12.57;;;;;;;7.06;83.05;102370.34;5048658;28;20052;-75
2022/11/13 06:58:52;;;;;;;17.85;10.00;;;;;;;7.18;82.79;102367.56;5047776;28;20044;-74
2022/11/13 07:01:20;;;;;;;34.10;11.50;;;;;;;7.09;82.79;102367.69;5047528;28;20064;-74
2022/11/13 07:03:47;;;;;;;33.95;10.07;;;;;;;7.03;83.58;102370.34;5066665;28;20048;-74
2022/11/13 07:06:18;;;;;;;27.85;10.43;;;;;;;6.95;83.49;102374.81;5065263;28;20123;-74
2022/11/13 07:08:46;;;;;;;36.03;10.82;;;;;;;6.99;83.52;102376.47;5070894;28;20063;-74
2022/11/13 07:11:14;;;;;;;20.90;9.75;;;;;;;7.13;83.65;102375.44;5070569;28;20047;-74
2022/11/13 07:13:41;;;;;;;30.50;11.20;;;;;;;7.24;83.06;102373.56;5066997;28;20082;-74
2022/11/13 07:16:10;;;;;;;37.63;11.25;;;;;;;7.26;82.73;102377.03;5066555;28;20048;-74
2022/11/13 07:18:37;;;;;;;163.40;18.83;;;;;;;7.26;81.67;102371.81;5065777;28;20484;-74
2022/11/13 07:21:06;;;;;;;57.10;10.85;;;;;;;7.30;81.92;102375.25;5067162;28;20056;-74
2022/11/13 07:23:33;;;;;;;136.65;14.82;;;;;;;7.11;82.43;102373.72;5076469;28;20048;-75
2022/11/13 07:25:59;;;;;;;44.20;11.52;;;;;;;7.15;83.16;102370.22;5073439;28;20123;-75
2022/11/13 07:28:26;;;;;;;30.77;11.10;;;;;;;7.17;83.22;102361.47;5069894;28;20047;-74
2022/11/13 07:30:52;;;;;;;28.48;11.90;;;;;;;7.19;83.88;102372.78;5067203;28;20040;-75
2022/11/13 07:33:20;;;;;;;34.45;12.73;;;;;;;7.16;83.99;102374.56;5077315;28;20044;-74
2022/11/13 07:35:47;;;;;;;170.48;14.88;;;;;;;7.26;83.54;102368.34;5072637;28;20048;-74
2022/11/13 07:38:13;;;;;;;79.57;14.48;;;;;;;7.19;84.01;102370.16;5074310;28;20052;-74
2022/11/13 07:40:40;;;;;;;143.93;36.97;;;;;;;7.25;84.62;102375.31;5068538;28;20052;-75
2022/11/13 07:43:06;;;;;;;235.73;18.70;;;;;;;7.34;83.76;102366.50;5066190;28;20056;-75
2022/11/13 07:45:33;;;;;;;158.32;17.50;;;;;;;7.47;83.83;102373.28;5065950;28;20040;-75
2022/11/13 07:48:00;;;;;;;154.35;17.70;;;;;;;7.58;83.76;102368.78;5069414;28;20488;-75
2022/11/13 07:50:29;;;;;;;83.03;14.25;;;;;;;7.38;84.48;102354.28;5070727;28;20047;-75
2022/11/13 07:52:56;;;;;;;179.80;34.72;;;;;;;7.55;84.44;102345.34;5082168;28;20048;-75
2022/11/13 07:55:23;;;;;;;228.15;31.63;;;;;;;7.69;84.50;102351.22;5077272;28;20488;-75
2022/11/13 07:57:49;;;;;;;171.40;23.92;;;;;;;7.65;84.09;102361.75;5066103;28;20049;-75
2022/11/13 08:00:17;;;;;;;201.13;23.15;;;;;;;7.65;84.85;102352.16;5080919;28;20039;-75
2022/11/13 08:02:43;;;;;;;242.45;25.67;;;;;;;8.07;82.56;102353.28;5084562;28;20388;-75
2022/11/13 08:05:10;;;;;;;142.20;17.23;;;;;;;8.15;82.53;102347.94;5080708;28;20052;-75
2022/11/13 08:07:38;;;;;;;195.27;21.20;;;;;;;8.19;82.57;102347.00;5063107;28;20045;-76
2022/11/13 08:10:05;;;;;;;58.63;15.10;;;;;;;8.20;82.85;102346.13;5066010;28;20484;-75
2022/11/13 08:12:31;;;;;;;118.70;17.25;;;;;;;8.18;83.27;102345.25;5066035;28;20041;-75
2022/11/13 08:14:59;;;;;;;82.88;16.27;;;;;;;8.33;82.78;102355.50;5064307;28;20044;-75
2022/11/13 08:17:25;;;;;;;76.90;15.70;;;;;;;8.37;82.99;102338.88;5067934;28;20536;-75
2022/11/13 08:19:52;;;;;;;55.65;16.60;;;;;;;8.36;83.21;102354.56;5073012;28;20052;-75
2022/11/13 08:22:18;;;;;;;185.20;20.38;;;;;;;8.40;84.29;102341.44;5071863;28;20049;-75
2022/11/13 08:24:46;;;;;;;114.70;18.98;;;;;;;8.53;83.83;102347.31;5064527;28;20041;-75
2022/11/13 08:27:12;;;;;;;181.32;20.80;;;;;;;8.56;83.89;102353.34;5066589;28;20060;-75
2022/11/13 08:29:39;;;;;;;83.88;17.25;;;;;;;8.68;83.38;102349.66;5078233;28;20053;-75
2022/11/13 08:32:05;;;;;;;218.57;22.17;;;;;;;8.72;82.90;102356.56;5081095;28;20044;-75
2022/11/13 08:34:32;;;;;;;62.10;16.25;;;;;;;8.73;82.67;102359.13;5084995;28;20449;-75
2022/11/13 08:36:58;;;;;;;50.70;16.80;;;;;;;8.55;83.49;102362.09;5065140;28;20423;-76
2022/11/13 08:39:25;;;;;;;54.40;16.40;;;;;;;8.66;83.11;102357.53;5054715;28;20298;-68
2022/11/13 08:41:53;;;;;;;76.20;15.65;;;;;;;8.76;83.26;102359.06;5051803;28;20389;-68
2022/11/13 08:44:19;;;;;;;53.25;16.17;;;;;;;8.69;82.88;102360.06;5035454;28;20518;-69
2022/11/13 08:46:45;;;;;;;51.55;14.98;;;;;;;8.55;83.83;102356.84;5031278;28;20049;-68
2022/11/13 08:49:12;;;;;;;177.85;19.85;;;;;;;8.69;82.18;102349.63;5047324;28;20052;-68
2022/11/13 08:51:38;;;;;;;79.45;18.20;;;;;;;8.54;83.30;102349.03;5044357;28;20040;-68
2022/11/13 08:54:05;;;;;;;98.35;17.13;;;;;;;8.72;83.16;102364.41;5056074;28;20056;-68
2022/11/13 08:56:31;;;;;;;73.85;17.35;;;;;;;8.79;83.54;102361.63;5064532;28;20047;-68
2022/11/13 08:58:59;;;;;;;55.92;16.23;;;;;;;8.87;83.58;102352.81;5057112;28;20682;-67
2022/11/13 09:01:26;;;;;;;62.97;17.95;;;;;;;8.91;83.37;102351.81;5066819;28;20047;-68
2022/11/13 09:03:52;;;;;;;64.90;18.27;;;;;;;8.96;83.58;102342.13;5078524;28;20060;-68
2022/11/13 09:06:18;;;;;;;48.08;15.77;;;;;;;9.13;83.21;102340.03;5049273;28;20060;-68
2022/11/13 09:08:45;;;;;;;64.07;17.38;;;;;;;9.14;83.25;102347.00;5050164;28;20048;-68
2022/11/13 09:11:11;;;;;;;57.67;18.38;;;;;;;9.19;83.71;102343.41;5049481;28;20051;-68
2022/11/13 09:13:38;;;;;;;57.40;18.85;;;;;;;9.10;83.32;102340.97;5041262;28;20516;-69
2022/11/13 09:16:06;;;;;;;64.20;19.23;;;;;;;8.84;85.41;102332.78;5060853;28;20067;-68
2022/11/13 09:18:33;;;;;;;63.30;18.95;;;;;;;9.17;84.81;102326.88;5051274;28;20715;-68
2022/11/13 09:21:01;;;;;;;59.22;19.90;;;;;;;9.11;84.19;102320.91;5031708;28;20443;-68
2022/11/13 09:23:28;;;;;;;58.13;22.10;;;;;;;8.95;85.17;102324.72;5038862;28;20072;-68
2022/11/13 09:25:55;;;;;;;48.70;17.88;;;;;;;8.87;86.25;102332.72;5045062;28;20061;-68
2022/11/13 09:28:22;;;;;;;55.00;19.55;;;;;;;8.96;85.29;102332.53;5039359;28;20500;-68
2022/11/13 09:30:48;;;;;;;53.97;18.27;;;;;;;9.14;85.41;102326.06;5057000;28;20176;-68
2022/11/13 09:33:16;;;;;;;57.28;18.45;;;;;;;9.21;85.08;102317.19;5058542;28;20040;-68
2022/11/13 09:35:43;;;;;;;48.35;18.92;;;;;;;9.34;84.73;102323.03;5040741;28;20048;-68
2022/11/13 09:38:12;;;;;;;53.13;19.17;;;;;;;9.40;85.51;102315.91;5050113;28;20041;-68
2022/11/13 09:40:46;;;;;;;53.50;19.05;;;;;;;9.68;84.95;102314.38;5052004;28;20043;-68
2022/11/13 09:43:28;;;;;;;58.15;21.15;;;;;;;9.85;84.32;102315.75;5040623;28;21113;-68
2022/11/13 09:45:58;;;;;;;63.13;23.63;;;;;;;9.92;84.69;102304.25;5053812;28;20043;-68
2022/11/13 09:48:31;;;;;;;67.90;20.00;;;;;;;10.05;84.30;102306.50;5045422;28;20310;-69
2022/11/13 09:51:01;;;;;;;53.95;19.67;;;;;;;10.09;84.08;102302.91;5048704;28;20062;-68
2022/11/13 09:53:33;;;;;;;52.58;20.88;;;;;;;10.16;83.38;102311.56;5042486;28;20048;-68
2022/11/13 09:56:11;;;;;;;51.42;18.63;;;;;;;10.27;82.55;102314.75;5047673;28;20408;-68
2022/11/13 09:58:48;;;;;;;41.97;17.58;;;;;;;10.32;82.08;102307.63;5045651;28;20044;-68
2022/11/13 10:01:21;;;;;;;45.72;17.85;;;;;;;9.85;83.55;102286.94;5068160;28;20503;-68
2022/11/13 10:03:55;;;;;;;44.97;18.05;;;;;;;10.07;83.98;102285.53;5058810;28;20079;-69
2022/11/13 10:06:32;;;;;;;44.03;19.15;;;;;;;10.04;83.83;102288.22;5044178;28;20051;-68
2022/11/13 10:09:03;;;;;;;45.75;19.02;;;;;;;10.21;83.80;102283.44;5055231;28;20051;-68
2022/11/13 10:11:36;;;;;;;45.75;18.42;;;;;;;10.49;83.41;102287.09;5040404;28;20060;-68
2022/11/13 10:14:08;;;;;;;44.38;19.13;;;;;;;10.65;82.82;102285.75;5048378;28;20056;-68
2022/11/13 10:16:39;;;;;;;43.90;18.53;;;;;;;10.70;82.41;102275.13;5039043;28;20040;-68
2022/11/13 10:19:14;;;;;;;42.38;18.20;;;;;;;10.35;82.82;102280.50;5048224;28;20045;-68
2022/11/13 10:21:46;;;;;;;44.22;18.63;;;;;;;10.41;83.36;102290.81;5049362;28;20047;-68
2022/11/13 10:24:16;;;;;;;43.25;18.50;;;;;;;10.49;83.47;102280.97;5041567;28;20510;-68
2022/11/13 10:26:43;;;;;;;46.60;19.48;;;;;;;10.56;82.76;102280.78;5046029;28;20075;-68
2022/11/13 10:29:12;;;;;;;47.63;19.33;;;;;;;10.54;83.41;102277.31;5041717;28;20051;-68
2022/11/13 10:31:46;;;;;;;44.95;20.88;;;;;;;10.30;85.07;102274.50;5049318;28;20523;-68
2022/11/13 10:34:15;;;;;;;44.40;19.17;;;;;;;10.16;85.57;102278.31;5048730;28;20040;-68
2022/11/13 10:36:54;;;;;;;45.15;20.38;;;;;;;10.43;84.94;102268.00;5050498;28;20510;-68
2022/11/13 10:39:20;;;;;;;44.03;20.70;;;;;;;9.91;87.13;102261.44;5052281;28;20052;-68
2022/11/13 10:41:49;;;;;;;42.70;21.17;;;;;;;10.12;86.70;102252.22;5038820;28;20052;-68
2022/11/13 10:44:23;;;;;;;45.00;22.27;;;;;;;9.80;87.76;102255.63;5048711;28;20044;-68
2022/11/13 10:46:49;;;;;;;43.40;21.77;;;;;;;9.72;88.60;102247.06;5053554;28;20554;-68
2022/11/13 10:49:21;;;;;;;42.20;20.02;;;;;;;9.52;89.61;102247.56;5037354;28;20048;-68
2022/11/13 10:51:55;;;;;;;45.92;21.25;;;;;;;9.00;93.54;102247.00;5042407;28;20109;-68
2022/11/13 10:54:25;;;;;;;43.03;20.20;;;;;;;9.24;92.58;102249.06;5039954;28;20048;-68
2022/11/13 10:56:59;;;;;;;38.85;19.10;;;;;;;9.57;91.15;102237.00;5043224;28;20048;-68
2022/11/13 10:59:26;;;;;;;42.33;21.25;;;;;;;9.72;90.27;102228.75;5044364;28;20136;-68
2022/11/13 11:01:53;;;;;;;44.17;20.30;;;;;;;9.86;88.88;102223.19;5035234;28;20538;-68
2022/11/13 11:04:26;;;;;;;41.63;21.55;;;;;;;9.81;89.65;102222.44;5045546;28;20044;-68
2022/11/13 11:06:53;;;;;;;43.10;20.77;;;;;;;9.88;88.81;102218.75;5048755;28;20068;-68
2022/11/13 11:09:23;;;;;;;50.72;22.10;;;;;;;10.35;88.51;102222.81;5038560;28;20047;-68
2022/11/13 11:12:18;;;;;;;45.40;20.70;;;;;;;10.55;86.93;102223.09;5045161;28;20044;-68
2022/11/13 11:14:59;;;;;;;40.83;21.08;;;;;;;10.68;86.04;102225.31;5046613;28;20052;-68
2022/11/13 11:17:31;;;;;;;41.70;20.90;;;;;;;10.66;86.16;102219.28;5048002;28;20040;-68
2022/11/13 11:20:03;;;;;;;41.45;20.77;;;;;;;10.52;84.82;102226.69;5047266;28;20055;-68
2022/11/13 11:22:34;;;;;;;39.22;20.50;;;;;;;10.45;85.71;102212.00;5046982;28;20052;-68